CZFN/ZFN METAR and TAF weather

Enter ICAO airport designator
Station Type Date Time Source
CZFN METAR 2022/11/27 02:24 UTC NOAA

CZFN 270224Z 29013KT 5SM -SN SCT034 OVC050 M10/M12 A3002 RMK SC3SC5 LAST STFD OBS NEXT 281600 SLP177


Station Type Date Time Source
CZFN Decoded METAR 2022/11/27 02:24 UTC NOAA

Fort Norman Airport, Canada (CZFN) 64-55N 125-34W
Nov 26, 2022 - 09:24 PM EST / 2022.11.27 0224 UTC
Wind: from the WNW (290 degrees) at 15 MPH (13 KT):0
Visibility: 5 mile(s):0
Sky conditions: overcast
Weather: light snow
Temperature: 14 F (-10 C)
Windchill: -2 F (-19 C):1
Dew Point: 10 F (-12 C)
Relative Humidity: 85%
Pressure (altimeter): 30.02 in. Hg (1016 hPa)
ob: CZFN 270224Z 29013KT 5SM -SN SCT034 OVC050 M10/M12 A3002 RMK SC3SC5 LAST STFD OBS NEXT 281600 SLP177
cycle: 2

Station Type Date Time Source
CZFN TAF UTC NOAA

Error!

Example: see airport list